createdAt,value
2022-10-08T00:01:21.597Z,85.34
2022-10-08T00:03:53.870Z,86.85
2022-10-08T00:06:32.127Z,86.85
2022-10-08T00:09:07.083Z,85.46
2022-10-08T00:11:39.964Z,85.69
2022-10-08T00:14:09.206Z,86.47
2022-10-08T00:16:41.578Z,85.61
2022-10-08T00:19:14.803Z,85.63
2022-10-08T00:21:44.902Z,86.54
2022-10-08T00:24:16.767Z,86.52
2022-10-08T00:26:44.702Z,85.75
2022-10-08T00:29:16.197Z,86.76
2022-10-08T00:31:47.429Z,85.63
2022-10-08T00:34:23.394Z,85.15
2022-10-08T00:36:55.727Z,85.87
2022-10-08T00:39:24.888Z,84.80
2022-10-08T00:41:55.110Z,84.07
2022-10-08T00:44:46.885Z,84.22
2022-10-08T00:47:33.297Z,84.59
2022-10-08T00:50:46.942Z,84.70
2022-10-08T00:53:14.168Z,83.54
2022-10-08T00:55:43.800Z,82.96
2022-10-08T00:58:24.026Z,83.65
2022-10-08T01:00:51.742Z,82.80
2022-10-08T01:03:18.800Z,84.13
2022-10-08T01:06:33.607Z,83.63
2022-10-08T01:09:23.866Z,82.94
2022-10-08T01:12:33.016Z,84.91
2022-10-08T01:15:14.036Z,83.85
2022-10-08T01:18:10.678Z,83.15
2022-10-08T01:21:00.370Z,82.33
2022-10-08T01:24:00.386Z,81.47
2022-10-08T01:27:06.719Z,81.15
2022-10-08T01:29:46.035Z,81.83
2022-10-08T01:32:22.142Z,81.92
2022-10-08T01:35:03.563Z,83.02
2022-10-08T01:37:37.200Z,82.66
2022-10-08T01:40:14.885Z,81.41
2022-10-08T01:42:42.160Z,80.17
2022-10-08T01:45:21.072Z,81.20
2022-10-08T01:47:51.216Z,81.93
2022-10-08T01:50:49.440Z,82.39
2022-10-08T01:53:19.387Z,82.09
2022-10-08T01:55:54.158Z,81.78
2022-10-08T01:58:50.076Z,82.19
2022-10-08T02:01:44.626Z,82.45
2022-10-08T02:04:49.959Z,82.61
2022-10-08T02:07:19.839Z,81.98
2022-10-08T02:10:12.007Z,82.42
2022-10-08T02:12:40.717Z,82.51
2022-10-08T02:15:23.462Z,82.27
2022-10-08T02:18:07.774Z,83.32
2022-10-08T02:20:59.010Z,83.26
2022-10-08T02:23:49.741Z,84.17
2022-10-08T02:26:26.857Z,82.96
2022-10-08T02:29:14.706Z,83.92
2022-10-08T02:32:06.482Z,84.74
2022-10-08T02:34:41.457Z,84.54
2022-10-08T02:37:28.287Z,85.20
2022-10-08T02:40:09.541Z,84.13
2022-10-08T02:42:42.412Z,84.87
2022-10-08T02:45:23.113Z,84.92
2022-10-08T02:47:57.874Z,82.92
2022-10-08T02:50:28.928Z,84.68
2022-10-08T02:52:56.352Z,84.70
2022-10-08T02:56:00.775Z,84.88
2022-10-08T02:58:27.811Z,85.35
2022-10-08T03:01:26.636Z,84.85
2022-10-08T03:04:18.936Z,84.33
2022-10-08T03:07:06.706Z,85.45
2022-10-08T03:09:42.066Z,85.43
2022-10-08T03:12:09.371Z,85.65
2022-10-08T03:14:43.574Z,85.01
2022-10-08T03:17:15.204Z,85.50
2022-10-08T03:19:42.140Z,85.94
2022-10-08T03:22:09.162Z,86.60
2022-10-08T03:24:36.642Z,87.78
2022-10-08T03:27:04.910Z,86.84
2022-10-08T03:29:31.875Z,86.47
2022-10-08T03:31:58.797Z,88.04
2022-10-08T03:34:26.434Z,87.45
2022-10-08T03:36:53.381Z,87.68
2022-10-08T03:39:20.338Z,88.93
2022-10-08T03:41:47.252Z,88.45
2022-10-08T03:44:14.212Z,87.74
2022-10-08T03:46:41.138Z,88.04
2022-10-08T03:49:08.304Z,86.85
2022-10-08T03:51:35.461Z,87.77
2022-10-08T03:54:02.465Z,86.50
2022-10-08T03:56:29.488Z,86.02
2022-10-08T03:59:01.072Z,85.81
2022-10-08T04:01:29.607Z,84.84
2022-10-08T04:03:56.638Z,85.17
2022-10-08T04:06:23.979Z,86.67
2022-10-08T04:08:51.211Z,86.07
2022-10-08T04:11:19.982Z,86.90
2022-10-08T04:13:46.938Z,85.42
2022-10-08T04:16:17.207Z,87.32
2022-10-08T04:18:45.152Z,86.86
2022-10-08T04:21:16.831Z,87.13
2022-10-08T04:23:45.423Z,86.41
2022-10-08T04:26:15.176Z,87.16
2022-10-08T04:28:44.801Z,85.03
2022-10-08T04:31:21.526Z,84.77
2022-10-08T04:33:50.675Z,85.49
2022-10-08T04:36:23.762Z,86.47
2022-10-08T04:38:51.576Z,85.61
2022-10-08T04:41:28.208Z,85.78
2022-10-08T04:44:01.064Z,85.68
2022-10-08T04:46:28.501Z,85.00
2022-10-08T04:48:57.097Z,85.86
2022-10-08T04:51:27.085Z,85.34
2022-10-08T04:53:55.936Z,84.47
2022-10-08T04:56:30.832Z,85.54
2022-10-08T04:58:59.622Z,84.37
2022-10-08T05:01:28.654Z,86.56
2022-10-08T05:03:58.685Z,86.06
2022-10-08T05:06:30.001Z,85.98
2022-10-08T05:09:02.834Z,85.04
2022-10-08T05:11:31.222Z,85.05
2022-10-08T05:14:00.212Z,85.37
2022-10-08T05:16:27.949Z,86.07
2022-10-08T05:18:55.956Z,85.90
2022-10-08T05:21:33.846Z,84.70
2022-10-08T05:24:04.774Z,85.96
2022-10-08T05:26:57.512Z,85.76
2022-10-08T05:29:25.468Z,85.76
2022-10-08T05:31:52.361Z,84.53
2022-10-08T05:34:19.415Z,85.81
2022-10-08T05:36:46.540Z,86.71
2022-10-08T05:39:13.993Z,86.73
2022-10-08T05:41:41.741Z,86.11
2022-10-08T05:44:11.620Z,86.63
2022-10-08T05:46:39.675Z,86.01
2022-10-08T05:49:15.324Z,84.60
2022-10-08T05:51:42.277Z,86.05
2022-10-08T05:54:09.222Z,85.90
2022-10-08T05:56:36.192Z,86.41
2022-10-08T05:59:03.343Z,87.09
2022-10-08T06:01:32.895Z,86.48
2022-10-08T06:04:08.859Z,87.43
2022-10-08T06:06:39.352Z,86.67
2022-10-08T06:09:08.803Z,87.19
2022-10-08T06:11:37.413Z,87.66
2022-10-08T06:14:06.958Z,87.53
2022-10-08T06:16:35.312Z,87.92
2022-10-08T06:19:03.728Z,86.66
2022-10-08T06:21:31.707Z,86.53
2022-10-08T06:24:08.768Z,84.94
2022-10-08T06:26:40.169Z,85.78
2022-10-08T06:29:13.149Z,85.38
2022-10-08T06:31:40.277Z,84.31
2022-10-08T06:34:07.441Z,85.67
2022-10-08T06:36:37.551Z,85.71
2022-10-08T06:39:13.365Z,84.77
2022-10-08T06:41:40.375Z,84.66
2022-10-08T06:44:13.299Z,85.31
2022-10-08T06:46:40.563Z,86.38
2022-10-08T06:49:07.785Z,85.93
2022-10-08T06:51:35.912Z,84.41
2022-10-08T06:54:07.910Z,84.14
2022-10-08T06:56:37.640Z,83.86
2022-10-08T06:59:06.637Z,84.25
2022-10-08T07:01:34.951Z,85.12
2022-10-08T07:04:04.985Z,84.16
2022-10-08T07:06:34.003Z,82.97
2022-10-08T07:09:02.743Z,82.82
2022-10-08T07:11:32.068Z,81.91
2022-10-08T07:13:59.421Z,82.49
2022-10-08T07:16:28.217Z,82.50
2022-10-08T07:18:58.435Z,82.41
2022-10-08T07:21:27.534Z,82.10
2022-10-08T07:23:54.918Z,81.65
2022-10-08T07:26:28.318Z,80.90
2022-10-08T07:29:00.336Z,80.75
2022-10-08T07:31:35.572Z,80.79
2022-10-08T07:34:08.166Z,79.60
2022-10-08T07:36:36.046Z,79.24
2022-10-08T07:39:08.762Z,78.97
2022-10-08T07:41:35.871Z,79.24
2022-10-08T07:44:04.395Z,78.44
2022-10-08T07:46:36.747Z,80.01
2022-10-08T07:49:04.981Z,79.11
2022-10-08T07:51:34.418Z,78.79
2022-10-08T07:54:04.761Z,78.01
2022-10-08T07:56:33.155Z,77.47
2022-10-08T07:59:01.946Z,78.62
2022-10-08T08:01:30.440Z,75.94
2022-10-08T08:04:08.075Z,75.44
2022-10-08T08:06:49.481Z,75.20
2022-10-08T08:09:18.160Z,75.34
2022-10-08T08:11:46.351Z,75.06
2022-10-08T08:14:13.442Z,73.46
2022-10-08T08:16:40.582Z,74.05
2022-10-08T08:19:08.142Z,74.91
2022-10-08T08:21:38.518Z,73.11
2022-10-08T08:24:13.362Z,72.53
2022-10-08T08:26:45.749Z,72.42
2022-10-08T08:29:18.896Z,72.12
2022-10-08T08:31:50.086Z,72.31
2022-10-08T08:34:22.729Z,72.42
2022-10-08T08:36:51.793Z,72.76
2022-10-08T08:39:23.650Z,72.15
2022-10-08T08:42:20.237Z,71.42
2022-10-08T08:44:57.146Z,70.42
2022-10-08T08:47:40.705Z,71.28
2022-10-08T08:50:31.456Z,70.39
2022-10-08T08:52:58.810Z,71.18
2022-10-08T08:55:49.011Z,70.46
2022-10-08T08:58:48.042Z,70.58
2022-10-08T09:01:29.646Z,70.17
2022-10-08T09:04:14.798Z,69.09
2022-10-08T09:06:43.179Z,69.62
2022-10-08T09:09:45.793Z,69.98
2022-10-08T09:12:27.600Z,69.59
2022-10-08T09:15:00.098Z,70.02
2022-10-08T09:17:39.619Z,69.16
2022-10-08T09:20:07.160Z,68.00
2022-10-08T09:22:40.634Z,67.46
2022-10-08T09:25:19.979Z,67.63
2022-10-08T09:27:55.813Z,66.94
2022-10-08T09:30:47.853Z,67.64
2022-10-08T09:33:16.270Z,68.53
2022-10-08T09:35:53.127Z,66.96
2022-10-08T09:38:37.468Z,65.98
2022-10-08T09:41:16.958Z,66.25
2022-10-08T09:43:45.602Z,68.28
2022-10-08T09:46:32.826Z,69.90
2022-10-08T09:49:31.375Z,68.79
2022-10-08T09:52:26.833Z,70.54
2022-10-08T09:55:20.028Z,70.57
2022-10-08T09:57:57.371Z,68.98
2022-10-08T10:00:32.944Z,70.02
2022-10-08T10:03:03.671Z,69.10
2022-10-08T10:05:36.914Z,68.55
2022-10-08T10:08:04.917Z,69.17
2022-10-08T10:10:45.151Z,69.55
2022-10-08T10:13:38.755Z,69.25
2022-10-08T10:16:27.164Z,69.28
2022-10-08T10:19:20.250Z,69.46
2022-10-08T10:22:20.702Z,67.17
2022-10-08T10:25:12.229Z,66.55
2022-10-08T10:27:47.673Z,67.03
2022-10-08T10:30:25.321Z,66.63
2022-10-08T10:33:14.919Z,66.76
2022-10-08T10:35:59.217Z,67.52
2022-10-08T10:38:33.903Z,68.94
2022-10-08T10:41:33.150Z,68.02
2022-10-08T10:44:13.914Z,68.63
2022-10-08T10:46:43.319Z,68.80
2022-10-08T10:49:24.890Z,67.70
2022-10-08T10:52:37.656Z,67.09
2022-10-08T10:55:44.397Z,67.44
2022-10-08T10:58:38.894Z,67.82
2022-10-08T11:01:12.033Z,68.24
2022-10-08T11:04:22.941Z,68.20
2022-10-08T11:07:20.159Z,68.69
2022-10-08T11:10:16.302Z,70.27
2022-10-08T11:13:01.434Z,69.18
2022-10-08T11:16:24.882Z,69.45
2022-10-08T11:18:56.742Z,71.12
2022-10-08T11:21:59.035Z,70.53
2022-10-08T11:25:23.508Z,70.71
2022-10-08T11:28:23.059Z,71.57
2022-10-08T11:31:15.538Z,71.17
2022-10-08T11:33:45.447Z,69.55
2022-10-08T11:36:41.121Z,68.65
2022-10-08T11:39:24.363Z,70.69
2022-10-08T11:42:16.830Z,70.94
2022-10-08T11:44:44.052Z,69.81
2022-10-08T11:47:41.880Z,69.81
2022-10-08T11:50:38.584Z,70.31
2022-10-08T11:53:13.750Z,70.20
2022-10-08T11:55:59.042Z,71.11
2022-10-08T11:58:31.280Z,70.62
2022-10-08T12:01:10.063Z,68.90
2022-10-08T12:03:41.244Z,69.68
2022-10-08T12:06:32.779Z,67.81
2022-10-08T12:09:07.086Z,68.31
2022-10-08T12:11:37.382Z,68.98
2022-10-08T12:14:15.658Z,68.08
2022-10-08T12:16:48.512Z,68.16
2022-10-08T12:19:44.076Z,68.41
2022-10-08T12:22:17.485Z,68.02
2022-10-08T12:24:49.684Z,69.25
2022-10-08T12:27:17.293Z,68.45
2022-10-08T12:30:01.067Z,68.94
2022-10-08T12:32:44.334Z,68.66
2022-10-08T12:36:13.405Z,68.65
2022-10-08T12:39:06.355Z,67.25
2022-10-08T12:42:15.632Z,67.08
2022-10-08T12:44:57.074Z,67.53
2022-10-08T12:48:04.811Z,65.95
2022-10-08T12:51:23.690Z,67.08
2022-10-08T12:53:50.881Z,65.19
2022-10-08T12:56:28.502Z,63.58
2022-10-08T12:59:01.472Z,65.00
2022-10-08T13:01:28.884Z,65.17
2022-10-08T13:04:17.936Z,64.65
2022-10-08T13:06:46.512Z,61.90
2022-10-08T13:09:35.962Z,61.48
2022-10-08T13:12:08.028Z,59.99
2022-10-08T13:14:39.384Z,59.22
2022-10-08T13:17:06.736Z,60.04
2022-10-08T13:19:37.960Z,63.17
2022-10-08T13:22:27.956Z,63.19
2022-10-08T13:24:54.881Z,64.33
2022-10-08T13:27:32.689Z,63.88
2022-10-08T13:30:20.834Z,64.39
2022-10-08T13:32:47.852Z,64.64
2022-10-08T13:35:24.591Z,61.93
2022-10-08T13:37:53.858Z,61.21
2022-10-08T13:40:23.826Z,60.02
2022-10-08T13:42:58.099Z,58.84
2022-10-08T13:45:30.336Z,58.38
2022-10-08T13:47:59.027Z,56.21
2022-10-08T13:50:26.095Z,56.12
2022-10-08T13:52:57.565Z,55.80
2022-10-08T13:55:32.022Z,55.80
2022-10-08T13:58:02.700Z,57.38
2022-10-08T14:00:33.086Z,55.23
2022-10-08T14:03:00.207Z,56.64
2022-10-08T14:05:30.527Z,57.20
2022-10-08T14:08:04.654Z,56.63
2022-10-08T14:10:32.514Z,54.78
2022-10-08T14:12:59.456Z,55.38
2022-10-08T14:15:26.628Z,58.10
2022-10-08T14:17:53.610Z,56.55
2022-10-08T14:20:20.662Z,58.97
2022-10-08T14:22:47.630Z,58.92
2022-10-08T14:25:21.789Z,60.19
2022-10-08T14:27:49.367Z,58.73
2022-10-08T14:30:17.993Z,58.30
2022-10-08T14:32:45.582Z,60.52
2022-10-08T14:35:12.977Z,61.67
2022-10-08T14:37:40.131Z,62.37
2022-10-08T14:40:20.940Z,62.19
2022-10-08T14:42:48.386Z,63.26
2022-10-08T14:45:15.580Z,62.12
2022-10-08T14:47:42.607Z,62.26
2022-10-08T14:50:10.269Z,63.57
2022-10-08T14:52:40.480Z,62.40
2022-10-08T14:55:11.267Z,62.20
2022-10-08T14:57:38.320Z,62.53
2022-10-08T15:00:06.969Z,62.88
2022-10-08T15:02:36.658Z,63.93
2022-10-08T15:05:03.815Z,63.43
2022-10-08T15:07:30.977Z,62.99
2022-10-08T15:09:58.609Z,63.75
2022-10-08T15:12:25.724Z,62.70
2022-10-08T15:14:52.635Z,59.94
2022-10-08T15:17:19.659Z,59.63
2022-10-08T15:19:47.029Z,60.27
2022-10-08T15:22:13.961Z,60.97
2022-10-08T15:24:41.268Z,60.66
2022-10-08T15:27:08.292Z,61.60
2022-10-08T15:29:36.576Z,61.99
2022-10-08T15:32:03.701Z,62.25
2022-10-08T15:34:30.722Z,61.83
2022-10-08T15:36:57.676Z,61.49
2022-10-08T15:39:24.705Z,62.85
2022-10-08T15:41:53.128Z,62.69
2022-10-08T15:44:29.903Z,61.76
2022-10-08T15:47:06.283Z,62.71
2022-10-08T15:49:42.750Z,62.74
2022-10-08T15:52:15.036Z,65.05
2022-10-08T15:54:42.868Z,63.91
2022-10-08T15:57:12.665Z,63.44
2022-10-08T15:59:39.775Z,64.76
2022-10-08T16:02:07.258Z,64.36
2022-10-08T16:04:34.398Z,64.57
2022-10-08T16:07:01.530Z,65.87
2022-10-08T16:09:28.740Z,66.05
2022-10-08T16:11:55.676Z,66.07
2022-10-08T16:14:26.675Z,67.07
2022-10-08T16:16:57.142Z,66.56
2022-10-08T16:19:26.938Z,66.88
2022-10-08T16:21:57.753Z,66.64
2022-10-08T16:24:25.401Z,67.56
2022-10-08T16:26:53.035Z,66.86
2022-10-08T16:29:20.570Z,67.04
2022-10-08T16:31:48.329Z,67.49
2022-10-08T16:34:22.437Z,68.43
2022-10-08T16:36:50.985Z,67.02
2022-10-08T16:39:21.275Z,67.68
2022-10-08T16:41:49.582Z,69.61
2022-10-08T16:44:20.512Z,68.24
2022-10-08T16:46:52.216Z,68.86
2022-10-08T16:49:26.721Z,69.17
2022-10-08T16:52:06.822Z,67.98
2022-10-08T16:54:33.957Z,69.44
2022-10-08T16:57:01.337Z,68.30
2022-10-08T16:59:30.232Z,69.10
2022-10-08T17:02:00.132Z,69.52
2022-10-08T17:04:29.308Z,70.00
2022-10-08T17:06:56.236Z,70.34
2022-10-08T17:09:23.525Z,70.53
2022-10-08T17:11:50.642Z,70.85
2022-10-08T17:14:18.639Z,70.65
2022-10-08T17:16:45.899Z,71.27
2022-10-08T17:19:13.706Z,71.70
2022-10-08T17:21:40.952Z,72.30
2022-10-08T17:24:09.820Z,72.00
2022-10-08T17:26:37.250Z,72.72
2022-10-08T17:29:08.888Z,71.55
2022-10-08T17:31:37.421Z,72.00
2022-10-08T17:34:05.733Z,72.94
2022-10-08T17:36:37.490Z,73.64
2022-10-08T17:39:08.952Z,74.16
2022-10-08T17:41:39.698Z,74.10
2022-10-08T17:44:10.120Z,74.60
2022-10-08T17:46:47.261Z,74.75
2022-10-08T17:49:17.950Z,75.20
2022-10-08T17:51:45.996Z,74.53
2022-10-08T17:54:17.313Z,74.62
2022-10-08T17:56:44.747Z,75.11
2022-10-08T17:59:22.640Z,75.46
2022-10-08T18:01:50.152Z,75.97
2022-10-08T18:04:19.463Z,76.31
2022-10-08T18:06:48.656Z,77.50
2022-10-08T18:09:21.717Z,76.43
2022-10-08T18:11:53.198Z,76.49
2022-10-08T18:14:21.848Z,76.91
2022-10-08T18:16:49.389Z,76.05
2022-10-08T18:19:17.384Z,76.76
2022-10-08T18:21:44.479Z,76.76
2022-10-08T18:24:11.707Z,77.00
2022-10-08T18:26:38.794Z,78.06
2022-10-08T18:29:13.895Z,77.32
2022-10-08T18:31:43.990Z,76.84
2022-10-08T18:34:19.268Z,76.52
2022-10-08T18:36:46.861Z,76.37
2022-10-08T18:39:22.552Z,76.06
2022-10-08T18:41:54.449Z,76.55
2022-10-08T18:44:25.335Z,77.32
2022-10-08T18:46:53.232Z,77.83
2022-10-08T18:49:30.313Z,77.65
2022-10-08T18:51:58.653Z,77.34
2022-10-08T18:54:25.854Z,78.13
2022-10-08T18:56:52.817Z,77.95
2022-10-08T18:59:20.393Z,79.74
2022-10-08T19:01:48.364Z,78.27
2022-10-08T19:04:20.962Z,79.46
2022-10-08T19:06:53.256Z,79.90
2022-10-08T19:09:21.021Z,79.40
2022-10-08T19:11:52.678Z,79.41
2022-10-08T19:14:22.962Z,79.87
2022-10-08T19:16:50.681Z,81.08
2022-10-08T19:19:27.374Z,80.64
2022-10-08T19:21:54.902Z,81.49
2022-10-08T19:24:25.955Z,81.09
2022-10-08T19:26:54.619Z,80.99
2022-10-08T19:29:29.258Z,81.15
2022-10-08T19:31:57.024Z,81.71
2022-10-08T19:34:27.162Z,82.50
2022-10-08T19:36:54.520Z,80.76
2022-10-08T19:39:28.936Z,81.57
2022-10-08T19:41:55.990Z,82.26
2022-10-08T19:44:23.127Z,82.75
2022-10-08T19:46:50.242Z,82.40
2022-10-08T19:49:18.557Z,81.03
2022-10-08T19:51:46.237Z,82.38
2022-10-08T19:54:13.601Z,82.29
2022-10-08T19:56:40.649Z,81.91
2022-10-08T19:59:08.875Z,82.11
2022-10-08T20:01:37.768Z,82.86
2022-10-08T20:04:07.288Z,82.35
2022-10-08T20:06:39.337Z,82.50
2022-10-08T20:09:11.733Z,82.71
2022-10-08T20:11:39.124Z,83.50
2022-10-08T20:14:06.853Z,82.41
2022-10-08T20:16:39.342Z,82.69
2022-10-08T20:19:16.646Z,82.75
2022-10-08T20:21:44.233Z,82.50
2022-10-08T20:24:11.804Z,83.90
2022-10-08T20:26:41.615Z,83.39
2022-10-08T20:29:31.193Z,83.46
2022-10-08T20:31:59.659Z,83.19
2022-10-08T20:34:31.031Z,82.71
2022-10-08T20:37:01.302Z,81.84
2022-10-08T20:39:28.984Z,83.14
2022-10-08T20:41:56.304Z,83.52
2022-10-08T20:44:23.200Z,83.58
2022-10-08T20:46:51.199Z,82.71
2022-10-08T20:49:18.658Z,83.24
2022-10-08T20:51:45.875Z,84.01
2022-10-08T20:54:17.120Z,83.47
2022-10-08T20:56:44.487Z,84.52
2022-10-08T20:59:17.165Z,82.29
2022-10-08T21:01:45.062Z,83.88
2022-10-08T21:04:12.397Z,83.46
2022-10-08T21:06:44.591Z,83.92
2022-10-08T21:09:13.254Z,83.45
2022-10-08T21:11:40.843Z,83.17
2022-10-08T21:14:10.249Z,82.40
2022-10-08T21:16:40.008Z,83.77
2022-10-08T21:19:14.108Z,82.82
2022-10-08T21:21:41.602Z,83.61
2022-10-08T21:24:09.313Z,84.36
2022-10-08T21:26:41.681Z,84.13
2022-10-08T21:29:14.290Z,83.55
2022-10-08T21:31:42.823Z,84.37
2022-10-08T21:34:12.886Z,84.50
2022-10-08T21:36:40.969Z,83.16
2022-10-08T21:39:13.555Z,84.86
2022-10-08T21:41:40.629Z,84.32
2022-10-08T21:44:09.036Z,84.42
2022-10-08T21:46:41.086Z,83.06
2022-10-08T21:49:20.487Z,84.86
2022-10-08T21:51:47.685Z,84.58
2022-10-08T21:54:16.704Z,84.91
2022-10-08T21:56:47.736Z,85.20
2022-10-08T21:59:16.173Z,86.12
2022-10-08T22:01:49.775Z,85.54
2022-10-08T22:04:23.877Z,84.31
2022-10-08T22:07:01.740Z,85.47
2022-10-08T22:09:32.250Z,85.95
2022-10-08T22:12:00.759Z,84.92
2022-10-08T22:14:28.402Z,85.37
2022-10-08T22:16:55.707Z,86.07
2022-10-08T22:19:23.238Z,85.68
2022-10-08T22:21:50.234Z,85.76
2022-10-08T22:24:17.317Z,85.65
2022-10-08T22:26:47.695Z,85.45
2022-10-08T22:29:15.450Z,85.12
2022-10-08T22:31:42.711Z,86.62
2022-10-08T22:34:10.525Z,86.08
2022-10-08T22:36:42.961Z,87.13
2022-10-08T22:39:10.380Z,86.32
2022-10-08T22:41:38.121Z,86.12
2022-10-08T22:44:05.490Z,86.75
2022-10-08T22:46:39.243Z,87.08
2022-10-08T22:49:10.788Z,87.31
2022-10-08T22:51:38.793Z,86.82
2022-10-08T22:54:06.257Z,87.09
2022-10-08T22:56:33.703Z,86.98
2022-10-08T22:59:00.845Z,86.89
2022-10-08T23:01:29.627Z,86.86
2022-10-08T23:03:57.355Z,86.46
2022-10-08T23:06:31.905Z,85.60
2022-10-08T23:09:03.260Z,85.79
2022-10-08T23:11:31.652Z,85.50
2022-10-08T23:14:00.321Z,86.39
2022-10-08T23:16:31.001Z,85.88
2022-10-08T23:19:05.792Z,87.67
2022-10-08T23:21:33.525Z,86.83
2022-10-08T23:24:00.841Z,87.00
2022-10-08T23:26:28.892Z,88.50
2022-10-08T23:29:00.300Z,87.47
2022-10-08T23:31:32.932Z,86.15
2022-10-08T23:34:01.175Z,87.84
2022-10-08T23:36:42.720Z,87.51
2022-10-08T23:39:16.408Z,87.78
2022-10-08T23:41:43.547Z,87.30
2022-10-08T23:44:11.993Z,87.11
2022-10-08T23:46:39.143Z,88.10
2022-10-08T23:49:06.208Z,88.34
2022-10-08T23:51:33.610Z,86.85
2022-10-08T23:54:03.579Z,87.85
2022-10-08T23:56:30.868Z,87.45
2022-10-08T23:58:58.781Z,88.09
